sensor_id;sensor_type;location;lat;lon;timestamp;P1;durP1;ratioP1;P2;durP2;ratioP2
25381;SDS011;16307;42.896;20.874;2023-02-15T00:02:11;22.98;;;11.25;;
25381;SDS011;16307;42.896;20.874;2023-02-15T00:04:57;19.70;;;11.45;;
25381;SDS011;16307;42.896;20.874;2023-02-15T00:07:43;21.83;;;11.00;;
25381;SDS011;16307;42.896;20.874;2023-02-15T00:10:29;20.95;;;11.73;;
25381;SDS011;16307;42.896;20.874;2023-02-15T00:13:15;20.38;;;11.93;;
25381;SDS011;16307;42.896;20.874;2023-02-15T00:16:04;21.45;;;11.63;;
25381;SDS011;16307;42.896;20.874;2023-02-15T00:18:51;20.45;;;12.02;;
25381;SDS011;16307;42.896;20.874;2023-02-15T00:21:38;18.95;;;10.90;;
25381;SDS011;16307;42.896;20.874;2023-02-15T00:24:25;19.13;;;10.90;;
25381;SDS011;16307;42.896;20.874;2023-02-15T00:27:10;17.80;;;10.82;;
25381;SDS011;16307;42.896;20.874;2023-02-15T00:29:57;18.73;;;11.40;;
25381;SDS011;16307;42.896;20.874;2023-02-15T00:32:42;21.13;;;11.40;;
25381;SDS011;16307;42.896;20.874;2023-02-15T00:35:29;20.75;;;11.90;;
25381;SDS011;16307;42.896;20.874;2023-02-15T00:38:15;21.13;;;11.52;;
25381;SDS011;16307;42.896;20.874;2023-02-15T00:41:02;20.75;;;11.38;;
25381;SDS011;16307;42.896;20.874;2023-02-15T00:43:49;20.33;;;11.50;;
25381;SDS011;16307;42.896;20.874;2023-02-15T00:46:35;19.52;;;11.43;;
25381;SDS011;16307;42.896;20.874;2023-02-15T00:49:21;17.88;;;10.55;;
25381;SDS011;16307;42.896;20.874;2023-02-15T00:52:07;18.17;;;11.07;;
25381;SDS011;16307;42.896;20.874;2023-02-15T00:54:53;21.27;;;11.20;;
25381;SDS011;16307;42.896;20.874;2023-02-15T00:57:39;20.08;;;10.52;;
25381;SDS011;16307;42.896;20.874;2023-02-15T01:00:25;21.58;;;11.65;;
25381;SDS011;16307;42.896;20.874;2023-02-15T01:03:12;18.95;;;10.32;;
25381;SDS011;16307;42.896;20.874;2023-02-15T01:06:00;21.00;;;10.70;;
25381;SDS011;16307;42.896;20.874;2023-02-15T01:08:47;19.65;;;11.18;;
25381;SDS011;16307;42.896;20.874;2023-02-15T01:11:33;17.02;;;10.38;;
25381;SDS011;16307;42.896;20.874;2023-02-15T01:14:19;20.45;;;11.80;;
25381;SDS011;16307;42.896;20.874;2023-02-15T01:17:05;21.58;;;11.63;;
25381;SDS011;16307;42.896;20.874;2023-02-15T01:19:53;21.00;;;11.95;;
25381;SDS011;16307;42.896;20.874;2023-02-15T01:22:38;20.95;;;11.63;;
25381;SDS011;16307;42.896;20.874;2023-02-15T01:25:24;21.25;;;11.60;;
25381;SDS011;16307;42.896;20.874;2023-02-15T01:28:10;21.33;;;12.15;;
25381;SDS011;16307;42.896;20.874;2023-02-15T01:30:57;20.08;;;12.40;;
25381;SDS011;16307;42.896;20.874;2023-02-15T01:33:45;21.00;;;11.32;;
25381;SDS011;16307;42.896;20.874;2023-02-15T01:36:33;23.40;;;10.75;;
25381;SDS011;16307;42.896;20.874;2023-02-15T01:39:19;23.98;;;12.95;;
25381;SDS011;16307;42.896;20.874;2023-02-15T01:42:07;22.83;;;12.48;;
25381;SDS011;16307;42.896;20.874;2023-02-15T01:45:00;18.83;;;11.25;;
25381;SDS011;16307;42.896;20.874;2023-02-15T01:50:51;23.35;;;12.60;;
25381;SDS011;16307;42.896;20.874;2023-02-15T01:53:43;18.00;;;10.73;;
25381;SDS011;16307;42.896;20.874;2023-02-15T01:56:34;21.77;;;11.18;;
25381;SDS011;16307;42.896;20.874;2023-02-15T01:59:21;20.60;;;11.20;;
25381;SDS011;16307;42.896;20.874;2023-02-15T02:02:09;20.05;;;11.20;;
25381;SDS011;16307;42.896;20.874;2023-02-15T02:04:59;21.70;;;11.98;;
25381;SDS011;16307;42.896;20.874;2023-02-15T02:07:48;24.52;;;12.55;;
25381;SDS011;16307;42.896;20.874;2023-02-15T02:10:38;20.45;;;11.30;;
25381;SDS011;16307;42.896;20.874;2023-02-15T02:13:24;19.08;;;11.15;;
25381;SDS011;16307;42.896;20.874;2023-02-15T02:29:18;23.55;;;13.02;;
25381;SDS011;16307;42.896;20.874;2023-02-15T02:35:46;22.63;;;11.98;;
25381;SDS011;16307;42.896;20.874;2023-02-15T02:50:33;22.40;;;12.50;;
25381;SDS011;16307;42.896;20.874;2023-02-15T02:53:19;21.00;;;12.00;;
25381;SDS011;16307;42.896;20.874;2023-02-15T02:56:18;20.02;;;11.27;;
25381;SDS011;16307;42.896;20.874;2023-02-15T02:59:27;19.50;;;11.05;;
25381;SDS011;16307;42.896;20.874;2023-02-15T03:02:34;19.95;;;11.07;;
25381;SDS011;16307;42.896;20.874;2023-02-15T03:05:25;24.60;;;12.73;;
25381;SDS011;16307;42.896;20.874;2023-02-15T03:08:14;20.75;;;11.23;;
25381;SDS011;16307;42.896;20.874;2023-02-15T03:11:07;21.25;;;11.27;;
25381;SDS011;16307;42.896;20.874;2023-02-15T03:13:53;19.92;;;11.40;;
25381;SDS011;16307;42.896;20.874;2023-02-15T03:16:39;18.48;;;10.32;;
25381;SDS011;16307;42.896;20.874;2023-02-15T03:19:32;21.58;;;11.88;;
25381;SDS011;16307;42.896;20.874;2023-02-15T03:22:21;18.30;;;10.13;;
25381;SDS011;16307;42.896;20.874;2023-02-15T03:25:19;19.17;;;11.05;;
25381;SDS011;16307;42.896;20.874;2023-02-15T03:28:09;20.67;;;11.10;;
25381;SDS011;16307;42.896;20.874;2023-02-15T03:30:57;20.52;;;12.05;;
25381;SDS011;16307;42.896;20.874;2023-02-15T03:33:50;20.67;;;11.73;;
25381;SDS011;16307;42.896;20.874;2023-02-15T03:36:47;17.45;;;10.73;;
25381;SDS011;16307;42.896;20.874;2023-02-15T03:39:54;20.42;;;12.20;;
25381;SDS011;16307;42.896;20.874;2023-02-15T03:43:14;22.40;;;12.93;;
25381;SDS011;16307;42.896;20.874;2023-02-15T03:46:18;18.45;;;11.02;;
25381;SDS011;16307;42.896;20.874;2023-02-15T03:49:09;22.23;;;11.10;;
25381;SDS011;16307;42.896;20.874;2023-02-15T03:51:57;19.00;;;11.05;;
25381;SDS011;16307;42.896;20.874;2023-02-15T03:54:44;18.83;;;11.60;;
25381;SDS011;16307;42.896;20.874;2023-02-15T03:57:34;17.25;;;10.40;;
25381;SDS011;16307;42.896;20.874;2023-02-15T04:00:40;16.52;;;9.82;;
25381;SDS011;16307;42.896;20.874;2023-02-15T04:03:57;20.90;;;10.65;;
25381;SDS011;16307;42.896;20.874;2023-02-15T04:06:46;18.05;;;10.20;;
25381;SDS011;16307;42.896;20.874;2023-02-15T04:09:32;21.50;;;10.30;;
25381;SDS011;16307;42.896;20.874;2023-02-15T04:12:37;18.98;;;10.63;;
25381;SDS011;16307;42.896;20.874;2023-02-15T04:15:23;19.73;;;11.18;;
25381;SDS011;16307;42.896;20.874;2023-02-15T04:18:27;17.67;;;10.02;;
25381;SDS011;16307;42.896;20.874;2023-02-15T04:21:32;18.65;;;10.13;;
25381;SDS011;16307;42.896;20.874;2023-02-15T04:24:37;18.00;;;10.63;;
25381;SDS011;16307;42.896;20.874;2023-02-15T04:27:42;18.85;;;10.18;;
25381;SDS011;16307;42.896;20.874;2023-02-15T04:30:30;18.92;;;10.75;;
25381;SDS011;16307;42.896;20.874;2023-02-15T04:33:16;17.38;;;10.18;;
25381;SDS011;16307;42.896;20.874;2023-02-15T04:36:03;21.42;;;10.73;;
25381;SDS011;16307;42.896;20.874;2023-02-15T04:38:51;18.33;;;10.50;;
25381;SDS011;16307;42.896;20.874;2023-02-15T04:41:37;21.48;;;11.55;;
25381;SDS011;16307;42.896;20.874;2023-02-15T04:44:23;18.77;;;10.88;;
25381;SDS011;16307;42.896;20.874;2023-02-15T04:47:09;22.42;;;12.48;;
25381;SDS011;16307;42.896;20.874;2023-02-15T04:49:55;21.25;;;11.13;;
25381;SDS011;16307;42.896;20.874;2023-02-15T04:52:43;23.90;;;12.00;;
25381;SDS011;16307;42.896;20.874;2023-02-15T04:55:28;20.17;;;11.48;;
25381;SDS011;16307;42.896;20.874;2023-02-15T04:58:14;20.98;;;11.85;;
25381;SDS011;16307;42.896;20.874;2023-02-15T05:01:00;27.60;;;11.80;;
25381;SDS011;16307;42.896;20.874;2023-02-15T05:03:46;23.02;;;12.20;;
25381;SDS011;16307;42.896;20.874;2023-02-15T05:06:32;21.38;;;11.35;;
25381;SDS011;16307;42.896;20.874;2023-02-15T05:09:18;19.60;;;11.50;;
25381;SDS011;16307;42.896;20.874;2023-02-15T05:12:04;24.20;;;11.60;;
25381;SDS011;16307;42.896;20.874;2023-02-15T05:14:50;19.65;;;11.65;;
25381;SDS011;16307;42.896;20.874;2023-02-15T05:17:37;22.60;;;12.52;;
25381;SDS011;16307;42.896;20.874;2023-02-15T05:20:23;19.15;;;10.80;;
25381;SDS011;16307;42.896;20.874;2023-02-15T05:23:09;19.33;;;11.27;;
25381;SDS011;16307;42.896;20.874;2023-02-15T05:25:55;21.85;;;12.27;;
25381;SDS011;16307;42.896;20.874;2023-02-15T05:28:59;20.70;;;12.18;;
25381;SDS011;16307;42.896;20.874;2023-02-15T05:31:45;22.25;;;13.13;;
25381;SDS011;16307;42.896;20.874;2023-02-15T05:34:33;23.63;;;12.63;;
25381;SDS011;16307;42.896;20.874;2023-02-15T05:37:18;20.80;;;13.05;;
25381;SDS011;16307;42.896;20.874;2023-02-15T05:40:05;24.67;;;13.20;;
25381;SDS011;16307;42.896;20.874;2023-02-15T05:42:51;27.10;;;13.55;;
25381;SDS011;16307;42.896;20.874;2023-02-15T05:45:40;22.90;;;12.88;;
25381;SDS011;16307;42.896;20.874;2023-02-15T05:48:26;22.52;;;12.07;;
25381;SDS011;16307;42.896;20.874;2023-02-15T05:51:12;22.40;;;12.50;;
25381;SDS011;16307;42.896;20.874;2023-02-15T05:53:59;23.40;;;13.00;;
25381;SDS011;16307;42.896;20.874;2023-02-15T05:56:45;26.45;;;13.45;;
25381;SDS011;16307;42.896;20.874;2023-02-15T05:59:31;33.53;;;13.50;;
25381;SDS011;16307;42.896;20.874;2023-02-15T06:02:17;25.08;;;14.05;;
25381;SDS011;16307;42.896;20.874;2023-02-15T06:05:03;23.90;;;13.65;;
25381;SDS011;16307;42.896;20.874;2023-02-15T06:07:50;29.60;;;13.50;;
25381;SDS011;16307;42.896;20.874;2023-02-15T06:10:36;24.92;;;13.45;;
25381;SDS011;16307;42.896;20.874;2023-02-15T06:13:22;24.08;;;12.60;;
25381;SDS011;16307;42.896;20.874;2023-02-15T06:16:08;22.67;;;12.63;;
25381;SDS011;16307;42.896;20.874;2023-02-15T06:18:54;27.60;;;12.57;;
25381;SDS011;16307;42.896;20.874;2023-02-15T06:21:40;21.98;;;12.43;;
25381;SDS011;16307;42.896;20.874;2023-02-15T06:24:26;24.65;;;13.05;;
25381;SDS011;16307;42.896;20.874;2023-02-15T06:27:11;24.50;;;13.30;;
25381;SDS011;16307;42.896;20.874;2023-02-15T06:29:57;26.52;;;14.45;;
25381;SDS011;16307;42.896;20.874;2023-02-15T06:32:43;28.25;;;13.82;;
25381;SDS011;16307;42.896;20.874;2023-02-15T06:35:29;24.95;;;13.07;;
25381;SDS011;16307;42.896;20.874;2023-02-15T06:38:15;29.65;;;14.85;;
25381;SDS011;16307;42.896;20.874;2023-02-15T06:41:01;23.95;;;12.80;;
25381;SDS011;16307;42.896;20.874;2023-02-15T06:43:47;25.05;;;13.20;;
25381;SDS011;16307;42.896;20.874;2023-02-15T06:46:32;24.02;;;12.43;;
25381;SDS011;16307;42.896;20.874;2023-02-15T06:49:18;23.90;;;12.98;;
25381;SDS011;16307;42.896;20.874;2023-02-15T06:52:04;29.02;;;13.77;;
25381;SDS011;16307;42.896;20.874;2023-02-15T06:54:50;20.63;;;12.10;;
25381;SDS011;16307;42.896;20.874;2023-02-15T06:57:36;23.88;;;13.32;;
25381;SDS011;16307;42.896;20.874;2023-02-15T07:00:22;21.88;;;12.52;;
25381;SDS011;16307;42.896;20.874;2023-02-15T07:03:09;22.10;;;12.68;;
25381;SDS011;16307;42.896;20.874;2023-02-15T07:05:55;25.33;;;12.35;;
25381;SDS011;16307;42.896;20.874;2023-02-15T07:08:41;23.95;;;12.60;;
25381;SDS011;16307;42.896;20.874;2023-02-15T07:11:27;21.25;;;12.65;;
25381;SDS011;16307;42.896;20.874;2023-02-15T07:14:32;21.77;;;11.82;;
25381;SDS011;16307;42.896;20.874;2023-02-15T07:17:18;20.00;;;11.68;;
25381;SDS011;16307;42.896;20.874;2023-02-15T07:20:22;16.23;;;9.35;;
25381;SDS011;16307;42.896;20.874;2023-02-15T07:23:08;19.77;;;11.38;;
25381;SDS011;16307;42.896;20.874;2023-02-15T07:25:58;24.63;;;12.82;;
25381;SDS011;16307;42.896;20.874;2023-02-15T07:28:44;21.05;;;12.02;;
25381;SDS011;16307;42.896;20.874;2023-02-15T07:31:30;22.60;;;11.70;;
25381;SDS011;16307;42.896;20.874;2023-02-15T07:34:16;22.58;;;12.10;;
25381;SDS011;16307;42.896;20.874;2023-02-15T07:37:02;26.08;;;12.65;;
25381;SDS011;16307;42.896;20.874;2023-02-15T07:39:48;21.95;;;12.43;;
25381;SDS011;16307;42.896;20.874;2023-02-15T07:42:34;30.60;;;12.55;;
25381;SDS011;16307;42.896;20.874;2023-02-15T07:45:20;20.70;;;12.35;;
25381;SDS011;16307;42.896;20.874;2023-02-15T07:48:06;19.55;;;11.32;;
25381;SDS011;16307;42.896;20.874;2023-02-15T07:50:53;24.38;;;12.90;;
25381;SDS011;16307;42.896;20.874;2023-02-15T07:53:39;20.73;;;11.40;;
25381;SDS011;16307;42.896;20.874;2023-02-15T07:56:25;27.88;;;13.40;;
25381;SDS011;16307;42.896;20.874;2023-02-15T07:59:11;21.63;;;11.75;;
25381;SDS011;16307;42.896;20.874;2023-02-15T08:01:57;22.75;;;13.07;;
25381;SDS011;16307;42.896;20.874;2023-02-15T08:04:43;20.45;;;12.00;;
25381;SDS011;16307;42.896;20.874;2023-02-15T08:07:29;24.88;;;13.32;;
25381;SDS011;16307;42.896;20.874;2023-02-15T08:10:14;23.83;;;13.20;;
25381;SDS011;16307;42.896;20.874;2023-02-15T08:13:20;25.80;;;13.52;;
25381;SDS011;16307;42.896;20.874;2023-02-15T08:16:06;22.27;;;12.68;;
25381;SDS011;16307;42.896;20.874;2023-02-15T08:18:52;18.98;;;11.93;;
25381;SDS011;16307;42.896;20.874;2023-02-15T08:21:40;20.48;;;11.88;;
25381;SDS011;16307;42.896;20.874;2023-02-15T08:24:31;20.98;;;12.15;;
25381;SDS011;16307;42.896;20.874;2023-02-15T08:27:22;22.17;;;11.57;;
25381;SDS011;16307;42.896;20.874;2023-02-15T08:30:12;21.65;;;12.07;;
25381;SDS011;16307;42.896;20.874;2023-02-15T08:32:59;22.27;;;12.35;;
25381;SDS011;16307;42.896;20.874;2023-02-15T08:35:45;18.88;;;11.57;;
25381;SDS011;16307;42.896;20.874;2023-02-15T08:38:31;21.13;;;12.32;;
25381;SDS011;16307;42.896;20.874;2023-02-15T08:41:19;19.92;;;11.75;;
25381;SDS011;16307;42.896;20.874;2023-02-15T08:44:13;20.02;;;11.77;;
25381;SDS011;16307;42.896;20.874;2023-02-15T08:47:00;21.92;;;12.05;;
25381;SDS011;16307;42.896;20.874;2023-02-15T08:49:49;21.52;;;11.93;;
25381;SDS011;16307;42.896;20.874;2023-02-15T08:52:36;20.70;;;11.95;;
25381;SDS011;16307;42.896;20.874;2023-02-15T08:55:22;17.75;;;11.27;;
25381;SDS011;16307;42.896;20.874;2023-02-15T08:58:08;21.33;;;11.52;;
25381;SDS011;16307;42.896;20.874;2023-02-15T09:00:54;21.83;;;12.93;;
25381;SDS011;16307;42.896;20.874;2023-02-15T09:03:40;21.50;;;12.23;;
25381;SDS011;16307;42.896;20.874;2023-02-15T09:06:26;23.02;;;12.45;;
25381;SDS011;16307;42.896;20.874;2023-02-15T09:09:13;24.33;;;12.55;;
25381;SDS011;16307;42.896;20.874;2023-02-15T09:11:59;22.00;;;11.63;;
25381;SDS011;16307;42.896;20.874;2023-02-15T09:14:45;20.63;;;11.30;;
25381;SDS011;16307;42.896;20.874;2023-02-15T09:17:31;20.85;;;12.48;;
25381;SDS011;16307;42.896;20.874;2023-02-15T09:20:17;19.60;;;10.25;;
25381;SDS011;16307;42.896;20.874;2023-02-15T09:23:03;20.15;;;10.93;;
25381;SDS011;16307;42.896;20.874;2023-02-15T09:25:49;18.55;;;11.30;;
25381;SDS011;16307;42.896;20.874;2023-02-15T09:28:35;18.88;;;10.82;;
25381;SDS011;16307;42.896;20.874;2023-02-15T09:31:24;22.88;;;12.05;;
25381;SDS011;16307;42.896;20.874;2023-02-15T09:34:11;20.70;;;11.43;;
25381;SDS011;16307;42.896;20.874;2023-02-15T09:36:59;22.30;;;11.75;;
25381;SDS011;16307;42.896;20.874;2023-02-15T09:39:45;22.58;;;12.30;;
25381;SDS011;16307;42.896;20.874;2023-02-15T09:45:41;20.23;;;11.43;;
25381;SDS011;16307;42.896;20.874;2023-02-15T09:48:38;18.35;;;11.38;;
25381;SDS011;16307;42.896;20.874;2023-02-15T09:54:34;22.33;;;11.45;;
25381;SDS011;16307;42.896;20.874;2023-02-15T09:57:41;24.10;;;11.93;;
25381;SDS011;16307;42.896;20.874;2023-02-15T10:03:25;18.30;;;11.00;;
25381;SDS011;16307;42.896;20.874;2023-02-15T10:06:36;19.38;;;10.38;;
25381;SDS011;16307;42.896;20.874;2023-02-15T10:18:49;18.85;;;10.98;;
25381;SDS011;16307;42.896;20.874;2023-02-15T10:24:49;18.15;;;10.43;;
25381;SDS011;16307;42.896;20.874;2023-02-15T10:27:48;20.05;;;10.45;;
25381;SDS011;16307;42.896;20.874;2023-02-15T10:45:34;24.57;;;12.87;;
25381;SDS011;16307;42.896;20.874;2023-02-15T10:54:58;18.33;;;11.18;;
25381;SDS011;16307;42.896;20.874;2023-02-15T11:00:47;19.92;;;11.38;;
25381;SDS011;16307;42.896;20.874;2023-02-15T11:07:16;18.05;;;11.50;;
25381;SDS011;16307;42.896;20.874;2023-02-15T11:13:17;18.50;;;11.05;;
25381;SDS011;16307;42.896;20.874;2023-02-15T11:16:05;17.48;;;10.80;;
25381;SDS011;16307;42.896;20.874;2023-02-15T11:18:55;18.95;;;11.13;;
25381;SDS011;16307;42.896;20.874;2023-02-15T11:21:45;24.40;;;12.50;;
25381;SDS011;16307;42.896;20.874;2023-02-15T11:24:40;18.42;;;11.43;;
25381;SDS011;16307;42.896;20.874;2023-02-15T11:27:29;19.05;;;12.02;;
25381;SDS011;16307;42.896;20.874;2023-02-15T11:30:23;16.05;;;10.27;;
25381;SDS011;16307;42.896;20.874;2023-02-15T11:33:18;18.58;;;11.50;;
25381;SDS011;16307;42.896;20.874;2023-02-15T11:36:42;22.27;;;12.15;;
25381;SDS011;16307;42.896;20.874;2023-02-15T11:39:29;16.65;;;10.25;;
25381;SDS011;16307;42.896;20.874;2023-02-15T11:42:18;16.75;;;10.00;;
25381;SDS011;16307;42.896;20.874;2023-02-15T11:48:08;18.33;;;11.13;;
25381;SDS011;16307;42.896;20.874;2023-02-15T11:50:56;21.92;;;12.07;;
25381;SDS011;16307;42.896;20.874;2023-02-15T11:53:42;19.70;;;10.73;;
25381;SDS011;16307;42.896;20.874;2023-02-15T11:56:30;17.80;;;10.10;;
25381;SDS011;16307;42.896;20.874;2023-02-15T11:59:21;19.50;;;11.75;;
25381;SDS011;16307;42.896;20.874;2023-02-15T12:02:18;17.23;;;10.95;;
25381;SDS011;16307;42.896;20.874;2023-02-15T12:05:10;18.17;;;11.23;;
25381;SDS011;16307;42.896;20.874;2023-02-15T12:08:03;19.98;;;11.32;;
25381;SDS011;16307;42.896;20.874;2023-02-15T12:11:00;19.02;;;10.93;;
25381;SDS011;16307;42.896;20.874;2023-02-15T12:13:59;18.60;;;10.50;;
25381;SDS011;16307;42.896;20.874;2023-02-15T12:16:54;25.38;;;14.20;;
25381;SDS011;16307;42.896;20.874;2023-02-15T12:19:41;28.15;;;14.73;;
25381;SDS011;16307;42.896;20.874;2023-02-15T12:22:28;27.88;;;15.73;;
25381;SDS011;16307;42.896;20.874;2023-02-15T12:25:24;22.60;;;13.38;;
25381;SDS011;16307;42.896;20.874;2023-02-15T12:31:26;26.77;;;15.27;;
25381;SDS011;16307;42.896;20.874;2023-02-15T12:34:19;28.50;;;15.33;;
25381;SDS011;16307;42.896;20.874;2023-02-15T12:37:17;27.58;;;15.15;;
25381;SDS011;16307;42.896;20.874;2023-02-15T12:40:21;27.63;;;15.70;;
25381;SDS011;16307;42.896;20.874;2023-02-15T12:44:01;30.92;;;15.60;;
25381;SDS011;16307;42.896;20.874;2023-02-15T12:46:20;32.40;;;17.00;;
25381;SDS011;16307;42.896;20.874;2023-02-15T12:51:59;35.40;;;17.17;;
25381;SDS011;16307;42.896;20.874;2023-02-15T12:54:47;33.10;;;17.20;;
25381;SDS011;16307;42.896;20.874;2023-02-15T12:57:33;27.33;;;15.88;;
25381;SDS011;16307;42.896;20.874;2023-02-15T13:03:14;31.33;;;16.70;;
25381;SDS011;16307;42.896;20.874;2023-02-15T13:06:03;28.52;;;15.80;;
25381;SDS011;16307;42.896;20.874;2023-02-15T13:08:53;33.10;;;18.40;;
25381;SDS011;16307;42.896;20.874;2023-02-15T13:11:41;29.88;;;17.40;;
25381;SDS011;16307;42.896;20.874;2023-02-15T13:14:31;32.03;;;16.15;;
25381;SDS011;16307;42.896;20.874;2023-02-15T13:17:18;28.40;;;15.35;;
25381;SDS011;16307;42.896;20.874;2023-02-15T13:20:18;28.20;;;13.57;;
25381;SDS011;16307;42.896;20.874;2023-02-15T13:23:06;30.25;;;17.25;;
25381;SDS011;16307;42.896;20.874;2023-02-15T13:25:59;28.35;;;16.10;;
25381;SDS011;16307;42.896;20.874;2023-02-15T13:28:53;30.38;;;15.35;;
25381;SDS011;16307;42.896;20.874;2023-02-15T13:31:41;27.63;;;15.40;;
25381;SDS011;16307;42.896;20.874;2023-02-15T13:34:30;32.63;;;15.32;;
25381;SDS011;16307;42.896;20.874;2023-02-15T13:38:07;27.38;;;14.68;;
25381;SDS011;16307;42.896;20.874;2023-02-15T14:08:13;35.72;;;17.75;;
25381;SDS011;16307;42.896;20.874;2023-02-15T14:11:22;31.20;;;17.10;;
25381;SDS011;16307;42.896;20.874;2023-02-15T14:20:30;34.15;;;19.80;;
25381;SDS011;16307;42.896;20.874;2023-02-15T14:23:25;35.75;;;18.65;;
25381;SDS011;16307;42.896;20.874;2023-02-15T14:26:19;31.63;;;18.90;;
25381;SDS011;16307;42.896;20.874;2023-02-15T14:29:16;42.28;;;23.60;;
25381;SDS011;16307;42.896;20.874;2023-02-15T14:32:10;33.63;;;19.20;;
25381;SDS011;16307;42.896;20.874;2023-02-15T14:34:59;33.45;;;19.38;;
25381;SDS011;16307;42.896;20.874;2023-02-15T14:43:53;38.35;;;21.88;;
25381;SDS011;16307;42.896;20.874;2023-02-15T14:46:50;44.42;;;24.23;;
25381;SDS011;16307;42.896;20.874;2023-02-15T14:49:38;41.90;;;20.08;;
25381;SDS011;16307;42.896;20.874;2023-02-15T14:52:25;50.20;;;23.67;;
25381;SDS011;16307;42.896;20.874;2023-02-15T14:55:11;44.40;;;23.98;;
25381;SDS011;16307;42.896;20.874;2023-02-15T14:58:21;56.97;;;28.83;;
25381;SDS011;16307;42.896;20.874;2023-02-15T15:01:07;47.10;;;24.33;;
25381;SDS011;16307;42.896;20.874;2023-02-15T15:03:55;48.00;;;24.25;;
25381;SDS011;16307;42.896;20.874;2023-02-15T15:06:44;51.25;;;27.88;;
25381;SDS011;16307;42.896;20.874;2023-02-15T15:09:45;46.75;;;22.90;;
25381;SDS011;16307;42.896;20.874;2023-02-15T15:37:01;59.28;;;28.88;;
25381;SDS011;16307;42.896;20.874;2023-02-15T15:43:47;69.65;;;31.55;;
25381;SDS011;16307;42.896;20.874;2023-02-15T15:47:08;57.58;;;28.63;;
25381;SDS011;16307;42.896;20.874;2023-02-15T15:50:19;55.40;;;27.65;;
25381;SDS011;16307;42.896;20.874;2023-02-15T15:53:06;55.92;;;26.75;;
25381;SDS011;16307;42.896;20.874;2023-02-15T15:55:55;53.92;;;27.40;;
25381;SDS011;16307;42.896;20.874;2023-02-15T15:58:50;58.00;;;30.13;;
25381;SDS011;16307;42.896;20.874;2023-02-15T16:01:39;54.45;;;26.42;;
25381;SDS011;16307;42.896;20.874;2023-02-15T16:04:28;60.63;;;30.00;;
25381;SDS011;16307;42.896;20.874;2023-02-15T16:10:03;65.28;;;32.80;;
25381;SDS011;16307;42.896;20.874;2023-02-15T16:12:51;68.22;;;34.03;;
25381;SDS011;16307;42.896;20.874;2023-02-15T16:15:45;73.93;;;37.03;;
25381;SDS011;16307;42.896;20.874;2023-02-15T16:18:36;76.00;;;34.05;;
25381;SDS011;16307;42.896;20.874;2023-02-15T16:21:31;62.63;;;31.75;;
25381;SDS011;16307;42.896;20.874;2023-02-15T16:30:29;70.13;;;32.45;;
25381;SDS011;16307;42.896;20.874;2023-02-15T16:33:17;63.90;;;30.10;;
25381;SDS011;16307;42.896;20.874;2023-02-15T16:36:06;60.75;;;30.60;;
25381;SDS011;16307;42.896;20.874;2023-02-15T16:41:41;64.53;;;32.75;;
25381;SDS011;16307;42.896;20.874;2023-02-15T16:44:31;62.03;;;31.08;;
25381;SDS011;16307;42.896;20.874;2023-02-15T16:47:28;58.63;;;30.05;;
25381;SDS011;16307;42.896;20.874;2023-02-15T16:50:20;93.38;;;41.22;;
25381;SDS011;16307;42.896;20.874;2023-02-15T16:53:24;77.40;;;36.83;;
25381;SDS011;16307;42.896;20.874;2023-02-15T16:56:12;75.28;;;36.10;;
25381;SDS011;16307;42.896;20.874;2023-02-15T16:58:58;75.68;;;32.85;;
25381;SDS011;16307;42.896;20.874;2023-02-15T17:01:45;81.63;;;37.33;;
25381;SDS011;16307;42.896;20.874;2023-02-15T17:04:32;68.72;;;34.03;;
25381;SDS011;16307;42.896;20.874;2023-02-15T17:07:20;81.32;;;40.35;;
25381;SDS011;16307;42.896;20.874;2023-02-15T17:13:22;73.63;;;35.92;;
25381;SDS011;16307;42.896;20.874;2023-02-15T17:16:18;96.68;;;43.97;;
25381;SDS011;16307;42.896;20.874;2023-02-15T17:19:14;88.28;;;38.85;;
25381;SDS011;16307;42.896;20.874;2023-02-15T17:22:01;108.05;;;49.50;;
25381;SDS011;16307;42.896;20.874;2023-02-15T17:24:59;76.18;;;35.22;;
25381;SDS011;16307;42.896;20.874;2023-02-15T17:27:53;66.75;;;33.47;;
25381;SDS011;16307;42.896;20.874;2023-02-15T17:30:40;65.13;;;29.90;;
25381;SDS011;16307;42.896;20.874;2023-02-15T17:33:35;64.20;;;30.65;;
25381;SDS011;16307;42.896;20.874;2023-02-15T17:36:26;62.13;;;29.90;;
25381;SDS011;16307;42.896;20.874;2023-02-15T17:39:19;55.80;;;26.85;;
25381;SDS011;16307;42.896;20.874;2023-02-15T17:42:06;52.45;;;27.58;;
25381;SDS011;16307;42.896;20.874;2023-02-15T17:44:52;57.15;;;28.73;;
25381;SDS011;16307;42.896;20.874;2023-02-15T17:47:38;59.75;;;28.38;;
25381;SDS011;16307;42.896;20.874;2023-02-15T17:50:26;56.15;;;27.40;;
25381;SDS011;16307;42.896;20.874;2023-02-15T17:53:13;59.58;;;29.52;;
25381;SDS011;16307;42.896;20.874;2023-02-15T17:56:02;61.92;;;30.35;;
25381;SDS011;16307;42.896;20.874;2023-02-15T17:58:57;82.40;;;34.90;;
25381;SDS011;16307;42.896;20.874;2023-02-15T18:01:47;62.85;;;30.65;;
25381;SDS011;16307;42.896;20.874;2023-02-15T18:04:52;81.38;;;37.17;;
25381;SDS011;16307;42.896;20.874;2023-02-15T18:07:57;73.50;;;34.03;;
25381;SDS011;16307;42.896;20.874;2023-02-15T18:11:02;93.95;;;44.25;;
25381;SDS011;16307;42.896;20.874;2023-02-15T18:14:07;79.25;;;34.20;;
25381;SDS011;16307;42.896;20.874;2023-02-15T18:16:55;63.38;;;31.50;;
25381;SDS011;16307;42.896;20.874;2023-02-15T18:19:41;67.07;;;31.95;;
25381;SDS011;16307;42.896;20.874;2023-02-15T18:22:28;69.97;;;33.75;;
25381;SDS011;16307;42.896;20.874;2023-02-15T18:25:15;65.07;;;31.65;;
25381;SDS011;16307;42.896;20.874;2023-02-15T18:28:03;65.38;;;30.45;;
25381;SDS011;16307;42.896;20.874;2023-02-15T18:30:49;62.15;;;28.92;;
25381;SDS011;16307;42.896;20.874;2023-02-15T18:33:45;62.50;;;29.33;;
25381;SDS011;16307;42.896;20.874;2023-02-15T18:36:36;68.75;;;31.40;;
25381;SDS011;16307;42.896;20.874;2023-02-15T18:39:42;67.95;;;31.27;;
25381;SDS011;16307;42.896;20.874;2023-02-15T18:42:32;76.32;;;34.83;;
25381;SDS011;16307;42.896;20.874;2023-02-15T18:45:29;71.03;;;33.67;;
25381;SDS011;16307;42.896;20.874;2023-02-15T18:48:19;73.97;;;33.80;;
25381;SDS011;16307;42.896;20.874;2023-02-15T18:51:12;76.13;;;33.78;;
25381;SDS011;16307;42.896;20.874;2023-02-15T18:54:18;72.53;;;34.35;;
25381;SDS011;16307;42.896;20.874;2023-02-15T18:57:08;78.78;;;35.92;;
25381;SDS011;16307;42.896;20.874;2023-02-15T18:59:57;80.05;;;35.45;;
25381;SDS011;16307;42.896;20.874;2023-02-15T19:02:44;84.45;;;36.40;;
25381;SDS011;16307;42.896;20.874;2023-02-15T19:05:31;80.85;;;37.65;;
25381;SDS011;16307;42.896;20.874;2023-02-15T19:08:18;78.47;;;37.13;;
25381;SDS011;16307;42.896;20.874;2023-02-15T19:11:13;82.65;;;36.97;;
25381;SDS011;16307;42.896;20.874;2023-02-15T19:14:01;81.35;;;37.20;;
25381;SDS011;16307;42.896;20.874;2023-02-15T19:16:47;77.28;;;35.35;;
25381;SDS011;16307;42.896;20.874;2023-02-15T19:19:33;75.25;;;37.30;;
25381;SDS011;16307;42.896;20.874;2023-02-15T19:22:22;83.60;;;39.20;;